createdAt,value
2018-05-26T00:00:19.843Z,19.70
2018-05-26T00:02:47.297Z,19.60
2018-05-26T00:05:14.742Z,19.60
2018-05-26T00:07:42.197Z,19.50
2018-05-26T00:10:09.631Z,19.50
2018-05-26T00:12:37.105Z,19.50
2018-05-26T00:15:04.569Z,19.50
2018-05-26T00:17:32.024Z,19.50
2018-05-26T00:19:59.887Z,19.40
2018-05-26T00:22:27.332Z,19.40
2018-05-26T00:24:54.775Z,19.40
2018-05-26T00:27:22.216Z,19.40
2018-05-26T00:29:49.757Z,19.40
2018-05-26T00:32:17.208Z,19.40
2018-05-26T00:34:44.674Z,19.40
2018-05-26T00:37:12.166Z,19.40
2018-05-26T00:39:39.698Z,19.40
2018-05-26T00:42:07.173Z,19.40
2018-05-26T00:44:34.611Z,19.40
2018-05-26T00:47:02.371Z,19.40
2018-05-26T00:49:29.851Z,19.40
2018-05-26T00:51:57.306Z,19.40
2018-05-26T00:54:24.748Z,19.30
2018-05-26T00:56:52.301Z,19.30
2018-05-26T00:59:19.754Z,19.30
2018-05-26T01:01:47.566Z,19.30
2018-05-26T01:04:15.103Z,19.30
2018-05-26T01:06:42.543Z,19.20
2018-05-26T01:09:10.348Z,19.20
2018-05-26T01:11:37.817Z,19.20
2018-05-26T01:14:05.264Z,19.20
2018-05-26T01:16:32.724Z,19.20
2018-05-26T01:19:00.199Z,19.20
2018-05-26T01:21:27.660Z,19.20
2018-05-26T01:23:55.120Z,19.20
2018-05-26T01:26:22.559Z,19.10
2018-05-26T01:28:50.073Z,19.10
2018-05-26T01:31:17.539Z,19.00
2018-05-26T01:33:45.747Z,18.90
2018-05-26T01:36:13.192Z,18.90
2018-05-26T01:38:41.584Z,18.80
2018-05-26T01:41:09.028Z,18.80
2018-05-26T01:43:36.699Z,18.80
2018-05-26T01:46:04.519Z,18.80
2018-05-26T01:48:32.080Z,18.70
2018-05-26T01:50:59.835Z,18.70
2018-05-26T01:53:27.264Z,18.70
2018-05-26T01:55:55.189Z,18.70
2018-05-26T01:58:22.635Z,18.70
2018-05-26T02:00:50.085Z,18.70
2018-05-26T02:03:17.677Z,18.60
2018-05-26T02:05:45.119Z,18.60
2018-05-26T02:08:12.568Z,18.60
2018-05-26T02:10:39.998Z,18.60
2018-05-26T02:13:07.840Z,18.60
2018-05-26T02:15:35.369Z,18.60
2018-05-26T02:18:02.826Z,18.50
2018-05-26T02:20:30.267Z,18.50
2018-05-26T02:22:58.079Z,18.50
2018-05-26T02:25:25.555Z,18.50
2018-05-26T02:27:53.046Z,18.50
2018-05-26T02:30:20.564Z,18.50
2018-05-26T02:32:48.022Z,18.50
2018-05-26T02:35:15.467Z,18.50
2018-05-26T02:37:42.909Z,18.40
2018-05-26T02:40:10.721Z,18.40
2018-05-26T02:42:38.196Z,18.30
2018-05-26T02:45:05.639Z,18.30
2018-05-26T02:47:33.097Z,18.30
2018-05-26T02:50:00.540Z,18.30
2018-05-26T02:52:28.074Z,18.30
2018-05-26T02:54:55.516Z,18.20
2018-05-26T02:57:23.052Z,18.20
2018-05-26T02:59:50.504Z,18.20
2018-05-26T03:02:17.973Z,18.20
2018-05-26T03:04:50.990Z,18.20
2018-05-26T03:07:24.020Z,18.10
2018-05-26T03:09:57.795Z,18.10
2018-05-26T03:12:31.203Z,18.10
2018-05-26T03:14:58.148Z,18.10
2018-05-26T03:17:31.148Z,18.10
2018-05-26T03:19:58.595Z,18.10
2018-05-26T03:22:26.263Z,18.10
2018-05-26T03:24:53.726Z,18.10
2018-05-26T03:27:21.168Z,18.10
2018-05-26T03:29:48.622Z,18.10
2018-05-26T03:32:16.085Z,18.10
2018-05-26T03:34:43.530Z,18.10
2018-05-26T03:37:11.011Z,18.10
2018-05-26T03:39:38.477Z,18.10
2018-05-26T03:42:05.952Z,18.10
2018-05-26T03:44:33.390Z,18.10
2018-05-26T03:47:00.840Z,18.10
2018-05-26T03:49:28.335Z,18.10
2018-05-26T03:51:55.794Z,18.20
2018-05-26T03:54:47.823Z,18.10
2018-05-26T03:57:27.169Z,18.10
2018-05-26T04:00:10.192Z,18.10
2018-05-26T04:02:37.651Z,18.20
2018-05-26T04:05:05.144Z,18.20
2018-05-26T04:07:32.591Z,18.20
2018-05-26T04:10:00.059Z,18.20
2018-05-26T04:12:27.915Z,18.20
2018-05-26T04:14:55.379Z,18.20
2018-05-26T04:17:22.832Z,18.30
2018-05-26T04:19:50.362Z,18.30
2018-05-26T04:22:17.955Z,18.40
2018-05-26T04:24:45.703Z,18.40
2018-05-26T04:27:13.151Z,18.50
2018-05-26T04:29:40.868Z,18.50
2018-05-26T04:32:08.312Z,18.50
2018-05-26T04:34:35.769Z,18.60
2018-05-26T04:37:03.207Z,18.70
2018-05-26T04:39:30.652Z,18.80
2018-05-26T04:41:58.101Z,18.80
2018-05-26T04:44:25.552Z,18.80
2018-05-26T04:46:52.999Z,18.90
2018-05-26T04:49:21.075Z,18.90
2018-05-26T04:51:48.606Z,19.00
2018-05-26T04:54:16.037Z,19.00
2018-05-26T04:56:43.501Z,19.10
2018-05-26T04:59:10.937Z,19.10
2018-05-26T05:01:38.408Z,19.20
2018-05-26T05:04:05.859Z,19.20
2018-05-26T05:06:33.291Z,19.30
2018-05-26T05:09:00.740Z,19.30
2018-05-26T05:11:28.234Z,19.40
2018-05-26T05:13:55.683Z,19.40
2018-05-26T05:16:23.119Z,19.40
2018-05-26T05:18:50.559Z,19.50
2018-05-26T05:21:18.039Z,19.50
2018-05-26T05:23:45.479Z,19.60
2018-05-26T05:26:12.921Z,19.70
2018-05-26T05:28:40.375Z,19.80
2018-05-26T05:31:07.910Z,19.90
2018-05-26T05:33:35.492Z,20.00
2018-05-26T05:36:02.931Z,20.10
2018-05-26T05:38:30.379Z,20.20
2018-05-26T05:40:57.824Z,20.20
2018-05-26T05:43:25.281Z,20.30
2018-05-26T05:45:52.716Z,20.40
2018-05-26T05:48:20.170Z,20.40
2018-05-26T05:50:47.611Z,20.50
2018-05-26T05:53:15.059Z,20.60
2018-05-26T05:55:42.507Z,20.60
2018-05-26T05:58:09.965Z,20.60
2018-05-26T06:00:37.395Z,20.60
2018-05-26T06:03:04.964Z,20.60
2018-05-26T06:05:32.452Z,20.50
2018-05-26T06:08:00.247Z,20.60
2018-05-26T06:10:27.718Z,20.60
2018-05-26T06:12:55.195Z,20.70
2018-05-26T06:15:22.655Z,20.80
2018-05-26T06:17:50.109Z,20.80
2018-05-26T06:20:17.632Z,20.90
2018-05-26T06:22:45.419Z,21.00
2018-05-26T06:25:12.889Z,21.10
2018-05-26T06:27:40.368Z,21.20
2018-05-26T06:30:08.219Z,21.30
2018-05-26T06:32:35.692Z,21.30
2018-05-26T06:35:03.551Z,21.40
2018-05-26T06:37:30.994Z,21.50
2018-05-26T06:39:58.564Z,21.60
2018-05-26T06:42:26.339Z,21.70
2018-05-26T06:44:53.792Z,21.80
2018-05-26T06:47:21.232Z,21.90
2018-05-26T06:49:48.672Z,22.10
2018-05-26T06:52:16.214Z,22.20
2018-05-26T06:54:43.719Z,22.20
2018-05-26T06:57:11.520Z,22.10
2018-05-26T06:59:38.980Z,22.00
2018-05-26T07:02:06.438Z,22.00
2018-05-26T07:04:34.328Z,21.90
2018-05-26T07:07:01.861Z,21.80
2018-05-26T07:09:29.317Z,21.80
2018-05-26T07:11:56.756Z,21.70
2018-05-26T07:14:24.195Z,21.70
2018-05-26T07:16:51.648Z,21.70
2018-05-26T07:19:19.208Z,21.60
2018-05-26T07:21:46.681Z,21.60
2018-05-26T07:24:14.120Z,21.60
2018-05-26T07:26:41.887Z,21.70
2018-05-26T07:29:09.336Z,21.80
2018-05-26T07:31:36.792Z,21.80
2018-05-26T07:34:04.247Z,21.90
2018-05-26T07:36:31.696Z,22.10
2018-05-26T07:38:59.299Z,22.20
2018-05-26T07:41:26.770Z,22.30
2018-05-26T07:43:54.219Z,22.40
2018-05-26T07:46:21.663Z,22.50
2018-05-26T07:48:49.114Z,22.60
2018-05-26T07:51:16.644Z,22.70
2018-05-26T07:53:44.071Z,22.90
2018-05-26T07:56:11.521Z,23.00
2018-05-26T07:58:39.026Z,23.20
2018-05-26T08:01:06.407Z,23.30
2018-05-26T08:03:33.852Z,23.50
2018-05-26T08:06:01.360Z,23.60
2018-05-26T08:08:28.813Z,23.60
2018-05-26T08:10:56.389Z,23.70
2018-05-26T08:13:23.819Z,23.80
2018-05-26T08:15:51.679Z,23.90
2018-05-26T08:18:19.171Z,24.00
2018-05-26T08:20:46.605Z,24.10
2018-05-26T08:23:14.053Z,24.20
2018-05-26T08:25:41.872Z,24.20
2018-05-26T08:28:09.335Z,24.30
2018-05-26T08:30:36.833Z,24.40
2018-05-26T08:33:04.349Z,24.50
2018-05-26T08:35:31.805Z,24.70
2018-05-26T08:37:59.253Z,24.80
2018-05-26T08:40:26.696Z,24.90
2018-05-26T08:42:54.179Z,25.00
2018-05-26T08:45:21.616Z,25.10
2018-05-26T08:47:49.078Z,25.20
2018-05-26T08:50:16.515Z,25.20
2018-05-26T08:52:43.978Z,25.30
2018-05-26T08:55:11.819Z,25.40
2018-05-26T08:57:39.295Z,25.50
2018-05-26T09:00:06.748Z,25.80
2018-05-26T09:02:34.221Z,26.00
2018-05-26T09:05:02.091Z,26.10
2018-05-26T09:07:29.547Z,26.30
2018-05-26T09:09:57.088Z,26.40
2018-05-26T09:12:24.540Z,26.50
2018-05-26T09:14:51.999Z,26.50
2018-05-26T09:17:19.431Z,26.50
2018-05-26T09:19:46.886Z,26.40
2018-05-26T09:22:14.397Z,26.40
2018-05-26T09:24:41.848Z,26.60
2018-05-26T09:27:09.319Z,26.70
2018-05-26T09:29:36.740Z,26.90
2018-05-26T09:32:04.206Z,27.00
2018-05-26T09:34:31.661Z,27.10
2018-05-26T09:36:59.117Z,27.20
2018-05-26T09:39:26.563Z,27.30
2018-05-26T09:41:54.416Z,27.60
2018-05-26T09:44:22.286Z,27.80
2018-05-26T09:46:49.728Z,27.90
2018-05-26T09:49:17.172Z,27.90
2018-05-26T09:51:44.613Z,28.20
2018-05-26T09:54:12.147Z,28.50
2018-05-26T09:56:39.612Z,28.80
2018-05-26T09:59:07.060Z,29.00
2018-05-26T10:01:34.518Z,29.40
2018-05-26T10:04:01.959Z,29.60
2018-05-26T10:06:29.522Z,29.90
2018-05-26T10:08:56.987Z,30.40
2018-05-26T10:11:25.267Z,31.10
2018-05-26T10:13:52.704Z,31.70
2018-05-26T10:16:20.904Z,33.40
2018-05-26T10:18:48.343Z,33.30
2018-05-26T10:21:16.569Z,34.20
2018-05-26T10:23:44.919Z,34.20
2018-05-26T10:26:12.393Z,34.10
2018-05-26T10:28:39.811Z,34.00
2018-05-26T10:31:07.420Z,33.80
2018-05-26T10:33:34.872Z,33.80
2018-05-26T10:36:02.717Z,34.50
2018-05-26T10:38:30.212Z,35.40
2018-05-26T10:40:57.655Z,35.90
2018-05-26T10:43:25.099Z,36.10
2018-05-26T10:46:19.123Z,36.00
2018-05-26T10:48:46.687Z,35.80
2018-05-26T10:51:14.142Z,35.70
2018-05-26T10:53:41.571Z,36.00
2018-05-26T10:56:09.018Z,36.20
2018-05-26T10:58:36.475Z,36.50
2018-05-26T11:01:03.916Z,36.70
2018-05-26T11:03:31.362Z,37.10
2018-05-26T11:05:58.816Z,37.20
2018-05-26T11:08:26.260Z,37.30
2018-05-26T11:10:53.885Z,36.90
2018-05-26T11:13:21.328Z,36.30
2018-05-26T11:15:48.781Z,35.80
2018-05-26T11:18:16.446Z,35.40
2018-05-26T11:20:43.887Z,35.20
2018-05-26T11:23:11.510Z,35.60
2018-05-26T11:25:39.070Z,36.00
2018-05-26T11:28:06.513Z,36.20
2018-05-26T11:30:33.987Z,36.30
2018-05-26T11:33:01.398Z,36.50
2018-05-26T11:35:28.844Z,36.80
2018-05-26T11:37:56.297Z,36.70
2018-05-26T11:40:23.744Z,36.10
2018-05-26T11:42:51.184Z,35.70
2018-05-26T11:45:18.619Z,36.10
2018-05-26T11:47:46.075Z,36.60
2018-05-26T11:50:13.515Z,36.60
2018-05-26T11:52:40.980Z,36.80
2018-05-26T11:55:08.420Z,37.20
2018-05-26T11:57:35.871Z,37.80
2018-05-26T12:00:03.313Z,38.00
2018-05-26T12:02:30.760Z,37.90
2018-05-26T12:04:58.198Z,37.80
2018-05-26T12:07:25.788Z,38.00
2018-05-26T12:09:53.264Z,38.10
2018-05-26T12:12:20.719Z,37.70
2018-05-26T12:14:48.489Z,37.60
2018-05-26T12:17:15.912Z,37.70
2018-05-26T12:19:43.360Z,37.90
2018-05-26T12:22:10.816Z,38.10
2018-05-26T12:24:38.435Z,38.40
2018-05-26T12:27:05.911Z,39.00
2018-05-26T12:29:33.368Z,39.80
2018-05-26T12:32:00.855Z,40.00
2018-05-26T12:34:28.293Z,40.00
2018-05-26T12:36:55.728Z,40.10
2018-05-26T12:39:23.220Z,40.10
2018-05-26T12:41:50.671Z,40.30
2018-05-26T12:44:18.150Z,40.60
2018-05-26T12:46:45.595Z,40.80
2018-05-26T12:49:13.038Z,40.50
2018-05-26T12:51:40.520Z,40.60
2018-05-26T12:54:07.963Z,40.90
2018-05-26T12:56:35.420Z,40.80
2018-05-26T12:59:03.287Z,40.80
2018-05-26T13:01:30.767Z,40.50
2018-05-26T13:03:58.219Z,40.10
2018-05-26T13:06:25.659Z,39.50
2018-05-26T13:08:53.111Z,39.40
2018-05-26T13:11:21.006Z,39.10
2018-05-26T13:13:48.455Z,38.70
2018-05-26T13:16:15.932Z,38.90
2018-05-26T13:18:43.370Z,38.70
2018-05-26T13:21:10.858Z,38.20
2018-05-26T13:23:38.296Z,38.10
2018-05-26T13:26:05.743Z,38.60
2018-05-26T13:28:33.187Z,38.90
2018-05-26T13:31:01.401Z,40.10
2018-05-26T13:33:28.991Z,40.10
2018-05-26T13:35:56.452Z,40.00
2018-05-26T13:38:24.115Z,39.60
2018-05-26T13:40:51.568Z,39.60
2018-05-26T13:43:19.041Z,39.60
2018-05-26T13:45:46.484Z,39.50
2018-05-26T13:48:13.931Z,39.40
2018-05-26T13:50:41.407Z,39.40
2018-05-26T13:53:09.005Z,39.60
2018-05-26T13:55:36.472Z,39.80
2018-05-26T13:58:03.820Z,39.30
2018-05-26T14:00:31.300Z,39.10
2018-05-26T14:02:58.752Z,38.90
2018-05-26T14:05:26.278Z,38.60
2018-05-26T14:07:53.756Z,38.40
2018-05-26T14:10:21.210Z,38.60
2018-05-26T14:12:48.648Z,39.10
2018-05-26T14:15:16.100Z,39.40
2018-05-26T14:17:43.540Z,39.40
2018-05-26T14:20:11.060Z,39.40
2018-05-26T14:22:38.507Z,39.30
2018-05-26T14:25:05.990Z,38.70
2018-05-26T14:27:33.440Z,38.10
2018-05-26T14:30:00.880Z,37.40
2018-05-26T14:32:28.338Z,37.00
2018-05-26T14:34:56.144Z,36.50
2018-05-26T14:37:23.587Z,36.30
2018-05-26T14:39:51.075Z,36.20
2018-05-26T14:42:18.906Z,36.00
2018-05-26T14:44:46.352Z,35.90
2018-05-26T14:47:13.878Z,35.60
2018-05-26T14:49:41.317Z,35.40
2018-05-26T14:52:08.786Z,35.00
2018-05-26T14:54:36.227Z,34.50
2018-05-26T14:57:03.672Z,34.10
2018-05-26T14:59:31.115Z,33.90
2018-05-26T15:01:58.579Z,33.80
2018-05-26T15:04:26.504Z,33.80
2018-05-26T15:06:54.059Z,33.70
2018-05-26T15:09:21.511Z,33.70
2018-05-26T15:11:48.947Z,33.50
2018-05-26T15:14:16.395Z,33.40
2018-05-26T15:16:43.832Z,33.30
2018-05-26T15:19:11.271Z,33.00
2018-05-26T15:21:38.735Z,32.80
2018-05-26T15:24:06.388Z,32.60
2018-05-26T15:26:33.845Z,32.40
2018-05-26T15:29:01.304Z,32.20
2018-05-26T15:31:28.893Z,32.10
2018-05-26T15:33:56.868Z,32.00
2018-05-26T15:36:24.406Z,31.90
2018-05-26T15:38:51.854Z,31.90
2018-05-26T15:41:19.320Z,31.90
2018-05-26T15:43:46.793Z,31.70
2018-05-26T15:46:14.254Z,31.70
2018-05-26T15:48:41.697Z,31.60
2018-05-26T15:51:09.144Z,31.60
2018-05-26T15:53:36.644Z,31.50
2018-05-26T15:56:04.303Z,31.30
2018-05-26T15:58:31.879Z,31.30
2018-05-26T16:00:59.845Z,31.20
2018-05-26T16:03:27.285Z,31.10
2018-05-26T16:05:54.739Z,31.10
2018-05-26T16:08:22.179Z,31.10
2018-05-26T16:10:49.699Z,31.20
2018-05-26T16:13:17.144Z,31.20
2018-05-26T16:15:44.635Z,31.30
2018-05-26T16:18:12.404Z,31.30
2018-05-26T16:20:39.880Z,31.20
2018-05-26T16:23:07.347Z,31.20
2018-05-26T16:25:34.808Z,31.10
2018-05-26T16:28:02.247Z,31.00
2018-05-26T16:30:29.692Z,30.90
2018-05-26T16:32:57.129Z,30.80
2018-05-26T16:35:24.586Z,30.80
2018-05-26T16:37:52.180Z,30.90
2018-05-26T16:40:19.626Z,30.90
2018-05-26T16:42:47.103Z,30.90
2018-05-26T16:45:14.546Z,30.70
2018-05-26T16:47:41.995Z,30.50
2018-05-26T16:50:09.819Z,30.30
2018-05-26T16:52:37.290Z,30.20
2018-05-26T16:55:04.740Z,30.10
2018-05-26T16:57:32.171Z,30.00
2018-05-26T16:59:59.632Z,30.00
2018-05-26T17:02:27.086Z,30.00
2018-05-26T17:04:54.680Z,30.00
2018-05-26T17:07:22.120Z,29.90
2018-05-26T17:09:49.568Z,29.80
2018-05-26T17:12:17.017Z,29.70
2018-05-26T17:14:44.457Z,29.70
2018-05-26T17:17:11.913Z,29.60
2018-05-26T17:19:39.440Z,29.50
2018-05-26T17:22:06.894Z,29.50
2018-05-26T17:24:34.337Z,29.50
2018-05-26T17:27:01.785Z,29.50
2018-05-26T17:29:29.223Z,29.50
2018-05-26T17:31:56.659Z,29.50
2018-05-26T17:34:24.096Z,29.60
2018-05-26T17:36:51.684Z,29.60
2018-05-26T17:39:19.133Z,29.70
2018-05-26T17:41:46.603Z,29.60
2018-05-26T17:44:14.043Z,29.60
2018-05-26T17:46:41.503Z,29.40
2018-05-26T17:49:09.108Z,29.40
2018-05-26T17:51:36.558Z,29.10
2018-05-26T17:54:04.333Z,29.00
2018-05-26T17:56:31.780Z,28.90
2018-05-26T17:58:59.219Z,28.80
2018-05-26T18:01:26.700Z,28.70
2018-05-26T18:03:54.144Z,28.70
2018-05-26T18:06:21.590Z,28.70
2018-05-26T18:08:49.045Z,28.70
2018-05-26T18:11:16.889Z,28.60
2018-05-26T18:13:44.342Z,28.60
2018-05-26T18:16:12.171Z,28.50
2018-05-26T18:18:39.640Z,28.40
2018-05-26T18:21:07.148Z,28.30
2018-05-26T18:23:34.611Z,28.30
2018-05-26T18:26:02.080Z,28.10
2018-05-26T18:28:29.592Z,28.10
2018-05-26T18:30:57.048Z,28.10
2018-05-26T18:33:24.495Z,28.10
2018-05-26T18:35:52.044Z,28.00
2018-05-26T18:38:19.500Z,27.90
2018-05-26T18:40:47.240Z,27.80
2018-05-26T18:43:14.690Z,27.80
2018-05-26T18:45:42.236Z,27.70
2018-05-26T18:48:09.693Z,27.60
2018-05-26T18:50:37.150Z,27.50
2018-05-26T18:53:04.584Z,27.50
2018-05-26T18:55:32.419Z,27.40
2018-05-26T18:57:59.883Z,27.30
2018-05-26T19:00:27.424Z,27.30
2018-05-26T19:02:54.880Z,27.10
2018-05-26T19:05:22.323Z,27.00
2018-05-26T19:07:49.777Z,26.90
2018-05-26T19:10:17.224Z,26.70
2018-05-26T19:12:44.739Z,26.60
2018-05-26T19:15:12.191Z,26.40
2018-05-26T19:17:39.631Z,26.30
2018-05-26T19:20:07.438Z,26.20
2018-05-26T19:22:34.908Z,26.20
2018-05-26T19:25:02.361Z,26.10
2018-05-26T19:27:29.912Z,26.00
2018-05-26T19:29:57.695Z,25.90
2018-05-26T19:32:25.148Z,25.80
2018-05-26T19:34:53.427Z,25.80
2018-05-26T19:37:20.991Z,25.80
2018-05-26T19:39:48.446Z,25.70
2018-05-26T19:42:15.909Z,25.60
2018-05-26T19:44:43.367Z,25.50
2018-05-26T19:47:10.804Z,25.50
2018-05-26T19:49:39.016Z,25.30
2018-05-26T19:52:06.497Z,25.20
2018-05-26T19:54:33.933Z,25.20
2018-05-26T19:57:01.409Z,25.10
2018-05-26T19:59:28.845Z,25.00
2018-05-26T20:01:56.342Z,25.00
2018-05-26T20:04:23.796Z,25.00
2018-05-26T20:06:51.236Z,24.90
2018-05-26T20:09:18.818Z,25.00
2018-05-26T20:11:46.313Z,24.90
2018-05-26T20:14:13.717Z,24.90
2018-05-26T20:16:41.172Z,25.00
2018-05-26T20:19:08.634Z,24.90
2018-05-26T20:21:36.099Z,24.90
2018-05-26T20:24:03.536Z,24.90
2018-05-26T20:26:31.235Z,24.80
2018-05-26T20:28:58.699Z,24.80
2018-05-26T20:31:26.166Z,24.70
2018-05-26T20:33:53.724Z,24.60
2018-05-26T20:36:21.169Z,24.40
2018-05-26T20:38:48.688Z,24.30
2018-05-26T20:41:16.157Z,24.20
2018-05-26T20:43:44.016Z,24.10
2018-05-26T20:46:11.471Z,24.10
2018-05-26T20:48:38.910Z,24.10
2018-05-26T20:51:06.364Z,24.10
2018-05-26T20:53:33.808Z,24.10
2018-05-26T20:56:01.254Z,24.00
2018-05-26T20:58:29.609Z,23.90
2018-05-26T21:00:57.061Z,23.80
2018-05-26T21:03:24.534Z,23.80
2018-05-26T21:05:51.983Z,23.70
2018-05-26T21:08:19.427Z,23.70
2018-05-26T21:10:46.880Z,23.60
2018-05-26T21:13:14.768Z,23.50
2018-05-26T21:15:42.226Z,23.50
2018-05-26T21:18:09.713Z,23.40
2018-05-26T21:20:37.238Z,23.30
2018-05-26T21:23:04.696Z,23.30
2018-05-26T21:25:32.175Z,23.30
2018-05-26T21:27:59.624Z,23.20
2018-05-26T21:30:27.428Z,23.20
2018-05-26T21:32:54.864Z,23.20
2018-05-26T21:35:22.322Z,23.10
2018-05-26T21:37:49.892Z,23.10
2018-05-26T21:40:17.347Z,23.10
2018-05-26T21:42:44.795Z,23.10
2018-05-26T21:45:12.236Z,23.10
2018-05-26T21:47:39.687Z,23.10
2018-05-26T21:50:07.527Z,23.10
2018-05-26T21:52:35.047Z,23.10
2018-05-26T21:55:02.543Z,23.10
2018-05-26T21:57:30.000Z,23.00
2018-05-26T21:59:57.467Z,23.10
2018-05-26T22:02:24.919Z,23.10
2018-05-26T22:04:52.362Z,23.00
2018-05-26T22:07:20.176Z,23.00
2018-05-26T22:09:47.636Z,23.00
2018-05-26T22:12:15.106Z,22.90
2018-05-26T22:14:42.563Z,22.90
2018-05-26T22:17:10.021Z,22.70
2018-05-26T22:19:37.464Z,22.70
2018-05-26T22:22:04.918Z,22.60
2018-05-26T22:24:32.386Z,22.70
2018-05-26T22:26:59.888Z,22.60
2018-05-26T22:29:27.354Z,22.60
2018-05-26T22:31:54.805Z,22.60
2018-05-26T22:34:22.255Z,22.50
2018-05-26T22:36:49.804Z,22.50
2018-05-26T22:39:17.244Z,22.50
2018-05-26T22:41:44.725Z,22.50
2018-05-26T22:44:12.183Z,22.50
2018-05-26T22:46:39.968Z,22.50
2018-05-26T22:49:07.425Z,22.50
2018-05-26T22:51:34.915Z,22.40
2018-05-26T22:54:02.377Z,22.40
2018-05-26T22:56:29.808Z,22.30
2018-05-26T22:58:57.359Z,22.30
2018-05-26T23:01:24.961Z,22.30
2018-05-26T23:03:53.415Z,22.30
2018-05-26T23:06:21.300Z,22.30
2018-05-26T23:08:48.768Z,22.30
2018-05-26T23:11:16.228Z,22.30
2018-05-26T23:13:43.713Z,22.30
2018-05-26T23:16:11.220Z,22.20
2018-05-26T23:18:38.663Z,22.20
2018-05-26T23:21:06.499Z,22.20
2018-05-26T23:23:33.945Z,22.20
2018-05-26T23:26:01.829Z,22.20
2018-05-26T23:28:29.357Z,22.10
2018-05-26T23:30:56.816Z,22.10
2018-05-26T23:33:24.262Z,22.00
2018-05-26T23:35:51.712Z,22.00
2018-05-26T23:38:19.173Z,21.90
2018-05-26T23:40:46.634Z,21.80
2018-05-26T23:43:14.126Z,21.80
2018-05-26T23:45:41.569Z,21.80
2018-05-26T23:48:09.376Z,21.70
2018-05-26T23:50:37.244Z,21.60
2018-05-26T23:53:04.729Z,21.60
2018-05-26T23:55:32.243Z,21.60
2018-05-26T23:57:59.712Z,21.60
